Time;durP1;ratioP1;P1;durP2;ratioP2;P2;SDS_P1;SDS_P2;PMS_P1;PMS_P2;Temp;Humidity;BMP_temperature;BMP_pressure;BME280_temperature;BME280_humidity;BME280_pressure;Samples;Min_cycle;Max_cycle;Signal;HPM_P1;HPM_P2
2021/08/05 00:01:24;;;;;;;2.50;1.83;;;;;;;22.36;52.54;101270.06;5059201;28;20028;-72
2021/08/05 00:03:49;;;;;;;1.83;1.35;;;;;;;22.34;52.62;101267.44;5093399;28;20063;-73
2021/08/05 00:06:15;;;;;;;1.77;1.30;;;;;;;22.34;52.64;101267.44;5094373;28;20387;-73
2021/08/05 00:08:40;;;;;;;1.77;1.20;;;;;;;22.31;52.75;101256.97;5094272;28;20032;-72
2021/08/05 00:11:06;;;;;;;1.92;1.27;;;;;;;22.31;52.78;101256.97;5093077;28;20031;-72
2021/08/05 00:13:31;;;;;;;2.47;1.83;;;;;;;22.34;52.76;101262.16;5110955;28;20101;-73
2021/08/05 00:15:57;;;;;;;1.30;0.95;;;;;;;22.34;52.77;101266.56;5109591;28;20096;-72
2021/08/05 00:18:24;;;;;;;2.67;1.70;;;;;;;22.31;52.62;101250.81;5092408;28;20028;-72
2021/08/05 00:20:49;;;;;;;1.70;1.20;;;;;;;22.32;52.61;101253.44;5092410;28;20150;-72
2021/08/05 00:23:14;;;;;;;1.73;1.27;;;;;;;22.27;52.78;101236.81;5093518;28;20052;-72
2021/08/05 00:25:40;;;;;;;1.95;1.20;;;;;;;22.32;52.66;101244.66;5075309;28;20028;-72
2021/08/05 00:28:05;;;;;;;2.60;1.05;;;;;;;22.33;52.76;101246.41;5092251;28;20024;-72
2021/08/05 00:30:31;;;;;;;1.35;1.08;;;;;;;22.33;52.73;101249.88;5093617;28;20048;-72
2021/08/05 00:32:56;;;;;;;1.23;0.90;;;;;;;22.30;52.83;101241.19;5093481;28;20028;-72
2021/08/05 00:35:22;;;;;;;1.50;1.38;;;;;;;22.29;52.63;101237.66;5092116;28;20118;-72
2021/08/05 00:37:47;;;;;;;1.55;1.20;;;;;;;22.30;52.82;101234.13;5092291;28;20028;-72
2021/08/05 00:40:12;;;;;;;1.30;1.10;;;;;;;22.30;52.75;101234.13;5075261;28;20028;-72
2021/08/05 00:42:38;;;;;;;1.17;1.05;;;;;;;22.33;52.74;101235.88;5075811;28;20127;-72
2021/08/05 00:45:04;;;;;;;1.98;1.25;;;;;;;22.33;52.75;101230.59;5093422;28;20048;-72
2021/08/05 00:47:29;;;;;;;2.72;1.30;;;;;;;22.33;52.76;101227.97;5075221;28;20031;-72
2021/08/05 00:49:56;;;;;;;0.95;0.85;;;;;;;22.30;52.87;101223.59;5108993;28;20394;-72
2021/08/05 00:52:22;;;;;;;1.88;1.35;;;;;;;22.30;52.82;101223.59;5096906;28;20035;-72
2021/08/05 00:54:47;;;;;;;1.65;1.50;;;;;;;22.29;52.96;101221.84;5096058;28;20028;-72
2021/08/05 00:57:13;;;;;;;1.50;1.30;;;;;;;22.31;52.79;101220.06;5078896;28;20039;-72
2021/08/05 00:59:38;;;;;;;2.20;1.05;;;;;;;22.30;52.89;101228.88;5095948;28;20378;-72
2021/08/05 01:02:20;;;;;;;1.40;1.23;;;;;;;22.31;52.78;101230.63;5079194;28;20154;-72
2021/08/05 01:04:49;;;;;;;1.77;1.33;;;;;;;22.30;52.84;101225.38;5075572;28;20499;-72
2021/08/05 01:07:25;;;;;;;1.00;0.90;;;;;;;22.33;52.63;101220.06;5076863;28;20400;-72
2021/08/05 01:09:59;;;;;;;1.40;0.88;;;;;;;22.32;52.78;101215.69;5075271;28;20036;-72
2021/08/05 01:13:13;;;;;;;1.85;1.05;;;;;;;22.30;52.92;101205.16;5075358;28;20056;-72
2021/08/05 01:15:39;;;;;;;1.63;0.90;;;;;;;22.29;52.85;101199.91;5069668;28;20485;-72
2021/08/05 01:18:10;;;;;;;1.95;1.00;;;;;;;22.28;52.80;101200.81;5058779;28;20051;-72
2021/08/05 01:20:40;;;;;;;1.38;1.10;;;;;;;22.27;52.77;101202.56;5075462;28;20078;-72
2021/08/05 01:23:29;;;;;;;1.35;0.93;;;;;;;22.26;52.79;101194.69;5075264;28;20017;-72
2021/08/05 01:26:05;;;;;;;3.50;1.33;;;;;;;22.25;52.74;101198.19;5076398;28;20463;-72
2021/08/05 01:28:32;;;;;;;1.45;1.10;;;;;;;22.29;52.99;101206.06;5076323;28;20405;-72
2021/08/05 01:31:00;;;;;;;2.42;1.40;;;;;;;22.28;52.85;101195.53;5058671;28;20475;-72
2021/08/05 01:33:26;;;;;;;1.55;0.95;;;;;;;22.26;52.91;101195.56;5076398;28;20501;-72
2021/08/05 01:35:53;;;;;;;1.73;1.30;;;;;;;22.28;52.86;101201.66;5075128;28;20029;-72
2021/08/05 01:38:19;;;;;;;1.85;1.23;;;;;;;22.25;52.92;101193.81;5074947;28;20064;-72
2021/08/05 01:40:48;;;;;;;1.50;1.20;;;;;;;22.27;52.86;101191.16;5076058;28;20490;-72
2021/08/05 01:43:14;;;;;;;1.30;0.90;;;;;;;22.26;52.98;101194.69;5074859;28;20408;-72
2021/08/05 01:45:41;;;;;;;1.98;1.27;;;;;;;22.25;52.86;101193.81;5075051;28;20033;-72
2021/08/05 01:48:10;;;;;;;1.90;1.30;;;;;;;22.23;52.89;101190.31;5082791;28;20655;-73
2021/08/05 01:50:36;;;;;;;1.58;1.08;;;;;;;22.26;52.99;101190.28;5088840;28;20033;-73
2021/08/05 01:53:02;;;;;;;1.10;0.80;;;;;;;22.23;53.00;101187.69;5088355;28;20027;-72
2021/08/05 01:55:28;;;;;;;1.58;1.20;;;;;;;22.28;52.77;101188.50;5084327;28;20027;-72
2021/08/05 01:57:57;;;;;;;2.25;1.40;;;;;;;22.24;52.69;101186.78;5088609;28;20119;-72
2021/08/05 02:00:22;;;;;;;1.40;1.00;;;;;;;22.28;52.73;101191.13;5076500;28;20093;-72
2021/08/05 02:02:53;;;;;;;1.70;1.13;;;;;;;22.25;52.98;101191.16;5080609;28;20502;-72
2021/08/05 02:05:26;;;;;;;1.55;1.10;;;;;;;22.20;52.73;101178.97;5095441;28;20039;-72
2021/08/05 02:08:05;;;;;;;1.67;1.20;;;;;;;22.21;52.95;101178.94;5095233;28;20044;-73
2021/08/05 02:10:34;;;;;;;1.70;1.40;;;;;;;22.23;52.71;101178.91;5096523;28;20024;-72
2021/08/05 02:13:28;;;;;;;1.35;1.00;;;;;;;22.25;52.88;101188.53;5095231;28;20418;-73
2021/08/05 02:15:57;;;;;;;1.58;1.30;;;;;;;22.25;52.91;101185.03;5094447;28;20431;-72
2021/08/05 02:18:26;;;;;;;1.33;1.10;;;;;;;22.27;52.79;101185.88;5094703;28;20112;-73
2021/08/05 02:20:52;;;;;;;1.45;1.02;;;;;;;22.21;52.81;101173.66;5095158;28;20100;-72
2021/08/05 02:23:18;;;;;;;1.55;1.08;;;;;;;22.24;52.82;101178.03;5111847;28;20474;-72
2021/08/05 02:25:46;;;;;;;1.48;1.00;;;;;;;22.22;52.92;101175.41;5094633;28;20577;-72
2021/08/05 02:28:12;;;;;;;1.20;0.88;;;;;;;22.25;52.83;101172.72;5094279;28;20032;-72
2021/08/05 02:30:39;;;;;;;1.88;1.27;;;;;;;22.22;52.88;101167.50;5077749;28;20034;-72
2021/08/05 02:33:05;;;;;;;1.23;0.98;;;;;;;22.20;52.97;101163.19;5094808;28;20093;-72
2021/08/05 02:35:35;;;;;;;1.02;0.80;;;;;;;22.19;52.76;101153.53;5111362;28;20032;-74
2021/08/05 02:38:01;;;;;;;1.95;1.25;;;;;;;22.25;52.80;101167.47;5095539;28;20028;-72
2021/08/05 02:40:26;;;;;;;1.58;1.27;;;;;;;22.22;53.01;101158.72;5095222;28;20138;-73
2021/08/05 02:42:52;;;;;;;1.35;1.05;;;;;;;22.21;52.83;101157.84;5095266;28;20107;-73
2021/08/05 02:45:18;;;;;;;1.77;1.25;;;;;;;22.24;52.86;101156.94;5093693;28;20123;-74
2021/08/05 02:47:43;;;;;;;0.95;0.80;;;;;;;22.20;52.79;101157.91;5110740;28;20036;-73
2021/08/05 02:50:10;;;;;;;1.25;1.10;;;;;;;22.21;52.75;101157.84;5076896;28;20519;-74
2021/08/05 02:52:38;;;;;;;1.45;1.10;;;;;;;22.24;53.07;101157.81;5077273;28;20039;-73
2021/08/05 02:55:05;;;;;;;1.30;0.90;;;;;;;22.18;52.72;101144.75;5094977;28;20382;-74
2021/08/05 02:57:31;;;;;;;1.27;1.00;;;;;;;22.18;52.74;101147.38;5093596;28;20483;-74
2021/08/05 02:59:57;;;;;;;2.17;1.30;;;;;;;22.14;52.78;101137.78;5093489;28;20032;-74
2021/08/05 03:02:22;;;;;;;1.58;1.48;;;;;;;22.23;52.89;101156.06;5093775;28;20031;-74
2021/08/05 03:04:49;;;;;;;1.73;1.10;;;;;;;22.20;52.72;101152.63;5079902;28;20023;-73
2021/08/05 03:07:14;;;;;;;1.20;0.95;;;;;;;22.22;52.83;101151.69;5097001;28;20016;-74
2021/08/05 03:09:40;;;;;;;1.25;1.00;;;;;;;22.19;52.80;101150.91;5096680;28;20089;-74
2021/08/05 03:12:05;;;;;;;1.60;1.30;;;;;;;22.22;52.85;101150.81;5096732;28;20036;-74
2021/08/05 03:14:32;;;;;;;1.60;0.95;;;;;;;22.20;52.82;101140.31;5114751;28;20048;-74
2021/08/05 03:16:58;;;;;;;1.40;1.10;;;;;;;22.19;52.84;101140.34;5097158;28;20038;-74
2021/08/05 03:19:23;;;;;;;1.45;1.00;;;;;;;22.20;52.78;101142.09;5080827;28;20027;-74
2021/08/05 03:21:48;;;;;;;2.00;1.45;;;;;;;22.22;52.93;101137.66;5097330;28;20031;-72
2021/08/05 03:24:14;;;;;;;1.88;1.20;;;;;;;22.16;52.86;101127.22;5115355;28;20063;-73
2021/08/05 03:26:39;;;;;;;1.60;1.00;;;;;;;22.14;52.90;101126.38;5097673;28;20068;-74
2021/08/05 03:29:06;;;;;;;1.42;1.00;;;;;;;22.18;52.68;101139.50;5079800;28;20066;-74
2021/08/05 03:31:31;;;;;;;1.38;1.23;;;;;;;22.21;52.57;101139.41;5079591;28;20027;-74
2021/08/05 03:33:56;;;;;;;1.00;0.80;;;;;;;22.20;52.80;101137.66;5114550;28;20031;-74
2021/08/05 03:36:22;;;;;;;1.55;1.08;;;;;;;22.18;52.79;101128.06;5114436;28;20032;-74
2021/08/05 03:38:47;;;;;;;1.88;1.35;;;;;;;22.18;52.59;101134.22;5079480;28;20058;-74
2021/08/05 03:41:12;;;;;;;1.90;1.30;;;;;;;22.20;52.79;101137.66;5079537;28;20028;-72
2021/08/05 03:43:38;;;;;;;1.40;1.17;;;;;;;22.18;52.86;101131.59;5096245;28;20393;-74
2021/08/05 03:46:04;;;;;;;1.20;1.00;;;;;;;22.20;52.86;101134.19;5079311;28;20115;-72
2021/08/05 03:48:29;;;;;;;3.55;1.33;;;;;;;22.20;52.83;101129.78;5096223;28;20122;-74
2021/08/05 03:50:54;;;;;;;1.10;1.00;;;;;;;22.16;52.86;101130.72;5114282;28;20028;-74
2021/08/05 03:53:20;;;;;;;1.27;1.00;;;;;;;22.20;52.86;101132.41;5079158;28;20024;-74
2021/08/05 03:55:45;;;;;;;1.10;0.95;;;;;;;22.16;52.73;101116.69;5095923;28;20034;-72
2021/08/05 03:58:11;;;;;;;1.67;1.20;;;;;;;22.19;53.08;101125.44;5114189;28;20503;-72
2021/08/05 04:00:37;;;;;;;1.33;1.00;;;;;;;22.20;52.70;101123.66;5079118;28;20092;-72
2021/08/05 04:03:02;;;;;;;1.42;1.20;;;;;;;22.16;52.83;101116.69;5095700;28;20196;-72
2021/08/05 04:05:29;;;;;;;1.42;1.00;;;;;;;22.18;52.85;101120.19;5079189;28;20023;-72
2021/08/05 04:07:54;;;;;;;1.30;1.10;;;;;;;22.19;52.67;101117.53;5096220;28;20032;-72
2021/08/05 04:10:19;;;;;;;1.70;1.15;;;;;;;22.17;52.81;101119.31;5095754;28;20548;-72
2021/08/05 04:12:45;;;;;;;1.40;0.98;;;;;;;22.13;52.71;101111.47;5113959;28;20028;-73
2021/08/05 04:15:11;;;;;;;1.23;0.90;;;;;;;22.17;52.78;101121.06;5114053;28;20473;-72
2021/08/05 04:17:38;;;;;;;0.90;0.80;;;;;;;22.18;52.77;101115.78;5095842;28;20027;-72
2021/08/05 04:20:04;;;;;;;1.50;1.00;;;;;;;22.18;52.78;101115.78;5114110;28;20027;-72
2021/08/05 04:22:30;;;;;;;1.10;0.90;;;;;;;22.17;52.79;101121.94;5078871;28;20032;-72
2021/08/05 04:24:55;;;;;;;1.13;0.88;;;;;;;22.14;52.95;101113.22;5078868;28;20126;-71
2021/08/05 04:27:21;;;;;;;1.20;0.95;;;;;;;22.16;52.67;101111.44;5117769;28;20019;-72
2021/08/05 04:29:46;;;;;;;1.65;0.93;;;;;;;22.18;52.72;101114.91;5099946;28;20032;-72
2021/08/05 04:32:12;;;;;;;1.83;1.13;;;;;;;22.17;52.81;101116.66;5118149;28;20030;-72
2021/08/05 04:34:37;;;;;;;1.33;1.00;;;;;;;22.18;52.71;101120.19;5099953;28;20035;-72
2021/08/05 04:37:03;;;;;;;1.52;0.90;;;;;;;22.18;52.65;101110.50;5082826;28;20038;-72
2021/08/05 04:39:28;;;;;;;1.40;1.20;;;;;;;22.17;52.66;101111.41;5082773;28;20039;-72
2021/08/05 04:41:53;;;;;;;1.95;1.10;;;;;;;22.18;52.71;101110.50;5083098;28;20524;-72
2021/08/05 04:44:19;;;;;;;1.10;0.90;;;;;;;22.18;52.72;101107.00;5100450;28;20030;-74
2021/08/05 04:46:44;;;;;;;1.65;1.00;;;;;;;22.14;52.64;101100.03;5100435;28;20020;-71
2021/08/05 04:49:09;;;;;;;1.48;1.10;;;;;;;22.17;52.68;101105.25;5118043;28;20512;-72
2021/08/05 04:51:35;;;;;;;1.13;0.95;;;;;;;22.14;52.69;101100.91;5082736;28;20162;-72
2021/08/05 04:54:02;;;;;;;1.15;0.90;;;;;;;22.18;52.84;101107.88;5117780;28;20072;-72
2021/08/05 04:56:29;;;;;;;1.30;1.00;;;;;;;22.17;52.58;101100.00;5099410;28;20435;-72
2021/08/05 04:58:54;;;;;;;1.70;1.17;;;;;;;22.17;52.70;101100.88;5117616;28;20028;-72
2021/08/05 05:01:20;;;;;;;1.30;0.95;;;;;;;22.15;52.61;101096.50;5082379;28;20072;-72
2021/08/05 05:03:45;;;;;;;2.70;0.98;;;;;;;22.17;52.68;101095.59;5078744;28;20131;-72
2021/08/05 05:06:10;;;;;;;2.00;1.08;;;;;;;22.17;52.71;101100.88;5095927;28;20385;-72
2021/08/05 05:08:36;;;;;;;1.55;1.13;;;;;;;22.16;52.71;101096.50;5096089;28;20539;-72
2021/08/05 05:11:01;;;;;;;1.40;1.00;;;;;;;22.16;52.65;101096.50;5097294;28;20420;-72
2021/08/05 05:13:27;;;;;;;1.95;1.55;;;;;;;22.18;52.55;101088.56;5062039;28;20081;-72
2021/08/05 05:15:53;;;;;;;1.52;1.00;;;;;;;22.20;52.54;101094.69;5095710;28;20020;-72
2021/08/05 05:18:22;;;;;;;1.42;1.08;;;;;;;22.12;53.01;101080.75;5096963;28;20078;-72
2021/08/05 05:20:49;;;;;;;1.70;1.23;;;;;;;22.19;52.59;101090.31;5096814;28;20474;-72
2021/08/05 05:23:14;;;;;;;1.65;1.00;;;;;;;22.19;52.69;101088.53;5095577;28;20549;-72
2021/08/05 05:25:40;;;;;;;1.77;1.40;;;;;;;22.17;52.59;101084.19;5096717;28;20095;-72
2021/08/05 05:28:07;;;;;;;1.83;1.20;;;;;;;22.18;52.75;101091.19;5078513;28;20032;-72
2021/08/05 05:30:33;;;;;;;1.10;0.90;;;;;;;22.18;52.72;101091.19;5112401;28;20016;-72
2021/08/05 05:32:58;;;;;;;1.60;1.17;;;;;;;22.21;52.71;101085.84;5096804;28;20377;-72
2021/08/05 05:35:23;;;;;;;1.30;1.00;;;;;;;22.21;52.64;101097.25;5095440;28;20028;-72
2021/08/05 05:37:51;;;;;;;1.98;1.45;;;;;;;22.20;52.52;101090.25;5094279;28;20027;-72
2021/08/05 05:40:18;;;;;;;1.40;1.10;;;;;;;22.21;52.64;101088.50;5095256;28;20032;-72
2021/08/05 05:42:43;;;;;;;1.52;1.10;;;;;;;22.18;52.60;101078.03;5112179;28;20424;-72
2021/08/05 05:45:11;;;;;;;1.50;1.00;;;;;;;22.20;52.66;101087.63;5095126;28;20028;-72
2021/08/05 05:47:36;;;;;;;2.08;1.15;;;;;;;22.21;52.63;101083.22;5095275;28;20348;-73
2021/08/05 05:50:03;;;;;;;1.55;1.17;;;;;;;22.19;52.81;101082.41;5096194;28;20039;-73
2021/08/05 05:52:28;;;;;;;1.42;0.95;;;;;;;22.21;52.73;101085.84;5078067;28;20032;-73
2021/08/05 05:54:54;;;;;;;1.25;1.05;;;;;;;22.21;52.67;101091.13;5096118;28;20028;-74
2021/08/05 05:57:19;;;;;;;1.48;1.10;;;;;;;22.20;52.60;101095.53;5077871;28;20028;-72
2021/08/05 05:59:44;;;;;;;1.70;1.10;;;;;;;22.14;52.64;101084.22;5061171;28;20024;-73
2021/08/05 06:02:10;;;;;;;1.50;1.00;;;;;;;22.17;52.98;101092.97;5095965;28;20024;-73
2021/08/05 06:04:35;;;;;;;1.17;0.90;;;;;;;22.18;52.68;101091.19;5094697;28;20154;-72
2021/08/05 06:07:04;;;;;;;1.60;1.23;;;;;;;22.20;52.56;101103.44;5095021;28;20027;-72
2021/08/05 06:09:29;;;;;;;1.98;1.35;;;;;;;22.17;52.68;101092.97;5094575;28;20524;-73
2021/08/05 06:11:55;;;;;;;1.45;1.15;;;;;;;22.19;52.64;101093.81;5095037;28;20031;-72
2021/08/05 06:14:20;;;;;;;1.77;1.20;;;;;;;22.17;53.07;101089.47;5095230;28;20032;-72
2021/08/05 06:16:45;;;;;;;1.35;1.15;;;;;;;22.20;52.59;101095.53;5094436;28;20032;-73
2021/08/05 06:19:12;;;;;;;1.63;1.13;;;;;;;22.21;52.63;101106.94;5111504;28;20432;-72
2021/08/05 06:21:38;;;;;;;1.38;1.27;;;;;;;22.27;52.54;101104.22;5094515;28;20016;-72
2021/08/05 06:24:04;;;;;;;1.20;0.80;;;;;;;22.29;52.59;101098.03;5095672;28;20035;-72
2021/08/05 06:26:29;;;;;;;1.65;1.20;;;;;;;22.28;52.53;101101.56;5094727;28;20024;-72
2021/08/05 06:28:55;;;;;;;1.48;0.90;;;;;;;22.28;52.34;101090.16;5096847;28;20032;-73
2021/08/05 06:31:20;;;;;;;1.80;1.30;;;;;;;22.25;52.48;101096.34;5095717;28;20032;-73
2021/08/05 06:33:50;;;;;;;1.77;1.35;;;;;;;22.28;52.64;101100.69;5078384;28;20066;-73
2021/08/05 06:36:16;;;;;;;1.50;0.98;;;;;;;22.27;52.66;101099.81;5095877;28;20036;-73
2021/08/05 06:38:42;;;;;;;1.25;0.90;;;;;;;22.28;52.74;101098.06;5096021;28;20035;-73
2021/08/05 06:41:07;;;;;;;1.48;1.27;;;;;;;22.25;52.53;101096.34;5095572;28;20078;-73
2021/08/05 06:43:32;;;;;;;1.33;1.00;;;;;;;22.32;52.55;101100.63;5094519;28;20035;-72
2021/08/05 06:45:58;;;;;;;1.63;1.17;;;;;;;22.31;52.65;101098.88;5077626;28;20382;-73
2021/08/05 06:48:23;;;;;;;1.33;1.13;;;;;;;22.33;52.41;101098.84;5093963;28;20085;-73
2021/08/05 06:50:48;;;;;;;1.42;1.00;;;;;;;22.44;52.37;101102.16;5077532;28;20028;-73
2021/08/05 06:53:14;;;;;;;1.00;0.80;;;;;;;22.41;52.66;101107.50;5094439;28;20089;-73
2021/08/05 06:55:39;;;;;;;2.13;1.23;;;;;;;22.35;52.50;101095.28;5093995;28;20031;-73
2021/08/05 06:58:05;;;;;;;1.45;1.25;;;;;;;22.33;52.36;101086.53;5060761;28;20024;-73
2021/08/05 07:00:30;;;;;;;1.27;1.00;;;;;;;22.41;52.48;101097.81;5110885;28;20032;-73
2021/08/05 07:02:56;;;;;;;1.85;1.35;;;;;;;22.50;52.31;101095.91;5096514;28;20520;-73
2021/08/05 07:05:21;;;;;;;1.67;1.08;;;;;;;22.49;52.32;101087.13;5098181;28;20055;-73
2021/08/05 07:07:46;;;;;;;1.50;1.10;;;;;;;22.53;52.22;101080.91;5080329;28;20088;-73
2021/08/05 07:10:12;;;;;;;2.83;1.83;;;;;;;22.53;52.19;101085.31;5097619;28;20115;-73
2021/08/05 07:12:38;;;;;;;1.10;0.98;;;;;;;22.64;52.05;101091.25;5097593;28;20110;-73
2021/08/05 07:15:05;;;;;;;1.45;1.30;;;;;;;22.69;52.06;101098.22;5115181;28;20051;-73
2021/08/05 07:17:30;;;;;;;1.20;0.98;;;;;;;22.68;51.95;101091.19;5115033;28;20086;-73
2021/08/05 07:19:56;;;;;;;1.65;1.48;;;;;;;22.72;51.96;101086.75;5097100;28;20465;-73
2021/08/05 07:22:21;;;;;;;1.35;1.13;;;;;;;22.78;51.91;101089.28;5097501;28;20103;-73
2021/08/05 07:24:47;;;;;;;2.00;1.45;;;;;;;22.79;51.87;101097.16;5097383;28;20108;-73
2021/08/05 07:27:15;;;;;;;1.33;1.00;;;;;;;22.78;51.86;101074.31;5100343;28;20023;-73
2021/08/05 07:29:46;;;;;;;2.00;1.48;;;;;;;22.82;51.75;101075.16;5116980;28;20023;-73
2021/08/05 07:32:12;;;;;;;2.42;1.10;;;;;;;22.82;51.75;101066.38;5116610;28;20038;-72
2021/08/05 07:34:37;;;;;;;1.90;1.20;;;;;;;22.90;51.60;101072.34;5098559;28;20032;-73
2021/08/05 07:37:03;;;;;;;1.50;1.02;;;;;;;22.92;51.79;101065.28;5096720;28;20035;-73
2021/08/05 07:39:28;;;;;;;1.05;0.90;;;;;;;22.90;51.59;101065.31;5096221;28;20035;-73
2021/08/05 07:41:54;;;;;;;1.10;0.90;;;;;;;22.92;51.67;101063.50;5079432;28;20039;-73
2021/08/05 07:44:19;;;;;;;1.38;1.02;;;;;;;22.88;51.82;101066.22;5114458;28;20125;-73
2021/08/05 07:46:47;;;;;;;1.67;1.20;;;;;;;22.83;52.10;101066.34;5096340;28;20035;-73
2021/08/05 07:49:12;;;;;;;1.38;1.10;;;;;;;22.87;51.93;101067.13;5079408;28;20092;-73
2021/08/05 07:51:37;;;;;;;1.63;1.17;;;;;;;22.82;51.81;101067.22;5114288;28;20023;-73
2021/08/05 07:54:04;;;;;;;1.13;0.93;;;;;;;22.88;51.98;101064.47;5079348;28;20022;-73
2021/08/05 07:56:29;;;;;;;2.20;1.48;;;;;;;22.91;51.76;101059.13;5096067;28;20474;-73
2021/08/05 07:58:54;;;;;;;1.95;1.08;;;;;;;22.92;51.57;101060.88;5096049;28;20038;-73
2021/08/05 08:01:20;;;;;;;1.50;1.13;;;;;;;22.97;51.63;101063.44;5113518;28;20027;-73
2021/08/05 08:03:45;;;;;;;1.42;0.90;;;;;;;22.98;51.79;101055.47;5079023;28;20047;-73
2021/08/05 08:06:10;;;;;;;1.67;1.27;;;;;;;23.00;51.62;101050.16;5114272;28;20057;-73
2021/08/05 08:08:36;;;;;;;1.38;1.10;;;;;;;22.97;51.74;101043.19;5114169;28;20269;-73
2021/08/05 08:11:01;;;;;;;1.58;0.82;;;;;;;23.02;51.68;101051.88;5079245;28;20058;-73
2021/08/05 08:13:28;;;;;;;1.55;1.10;;;;;;;23.04;51.57;101042.16;5096526;28;20038;-73
2021/08/05 08:15:55;;;;;;;1.80;1.30;;;;;;;23.01;51.49;101042.22;5096330;28;20028;-73
2021/08/05 08:18:21;;;;;;;1.40;1.00;;;;;;;23.03;51.71;101040.41;5096464;28;20023;-73
2021/08/05 08:20:46;;;;;;;2.38;1.10;;;;;;;23.04;51.57;101044.81;5096172;28;20035;-73
2021/08/05 08:23:12;;;;;;;1.15;0.90;;;;;;;23.01;51.65;101030.81;5096211;28;20031;-72
2021/08/05 08:25:37;;;;;;;1.50;1.20;;;;;;;23.06;51.56;101045.66;5079001;28;20028;-73
2021/08/05 08:28:03;;;;;;;2.03;1.17;;;;;;;23.04;51.67;101036.88;5095969;28;20028;-74
2021/08/05 08:30:29;;;;;;;1.10;1.00;;;;;;;23.03;51.64;101032.50;5095575;28;20102;-74
2021/08/05 08:32:54;;;;;;;1.33;1.10;;;;;;;23.06;51.64;101035.09;5078922;28;20030;-74
2021/08/05 08:35:20;;;;;;;1.70;1.30;;;;;;;23.08;51.61;101041.22;5095574;28;20112;-74
2021/08/05 08:37:45;;;;;;;2.00;1.52;;;;;;;23.08;51.50;101035.94;5095404;28;20127;-74
2021/08/05 08:40:13;;;;;;;1.50;1.10;;;;;;;23.02;51.67;101030.78;5113675;28;20034;-75
2021/08/05 08:42:40;;;;;;;1.80;1.10;;;;;;;23.00;51.93;101032.56;5113780;28;20027;-75
2021/08/05 08:45:10;;;;;;;1.67;1.10;;;;;;;23.02;51.80;101036.03;5095737;28;20046;-75
2021/08/05 08:47:36;;;;;;;1.38;1.10;;;;;;;23.01;51.68;101029.03;5113662;28;20085;-75
2021/08/05 08:50:02;;;;;;;1.15;0.80;;;;;;;23.01;51.71;101028.16;5095719;28;20436;-75
2021/08/05 08:52:30;;;;;;;1.23;1.00;;;;;;;23.05;51.65;101033.34;5095636;28;20075;-74
2021/08/05 08:54:57;;;;;;;1.10;0.93;;;;;;;23.06;51.71;101027.19;5113793;28;20033;-74
2021/08/05 08:57:28;;;;;;;1.90;1.25;;;;;;;23.06;51.70;101021.91;5113512;28;20056;-74
2021/08/05 08:59:54;;;;;;;1.35;1.05;;;;;;;23.02;51.67;101014.06;5095359;28;20035;-74
2021/08/05 09:02:20;;;;;;;1.10;1.00;;;;;;;23.03;51.55;101018.44;5078569;28;20031;-73
2021/08/05 09:04:49;;;;;;;1.05;0.95;;;;;;;23.02;51.62;101012.31;5095241;28;20375;-74
2021/08/05 09:07:14;;;;;;;1.13;0.85;;;;;;;23.05;51.52;101017.53;5095627;28;20111;-74
2021/08/05 09:09:40;;;;;;;1.80;1.10;;;;;;;23.04;51.78;101015.78;5095680;28;20063;-74
2021/08/05 09:12:05;;;;;;;1.00;0.90;;;;;;;23.04;51.61;101004.38;5079981;28;20052;-74
2021/08/05 09:14:49;;;;;;;1.30;1.00;;;;;;;23.01;51.74;101013.22;5082259;28;20031;-74
2021/08/05 09:17:26;;;;;;;1.33;1.20;;;;;;;23.01;51.69;101010.56;5117224;28;20016;-74
2021/08/05 09:20:01;;;;;;;1.27;1.00;;;;;;;23.04;51.60;101007.88;5099056;28;20063;-74
2021/08/05 09:22:44;;;;;;;1.50;1.17;;;;;;;23.03;51.57;101008.78;5099252;28;20489;-74
2021/08/05 09:25:18;;;;;;;1.27;1.08;;;;;;;23.05;51.52;101006.09;5117431;28;20026;-74
2021/08/05 09:27:45;;;;;;;1.20;1.00;;;;;;;23.05;51.47;101014.88;5098918;28;20052;-74
2021/08/05 09:30:11;;;;;;;1.08;0.90;;;;;;;23.02;51.56;101009.66;5098857;28;20031;-72
2021/08/05 09:32:36;;;;;;;1.17;0.80;;;;;;;23.02;51.64;101003.53;5082179;28;20438;-73
2021/08/05 09:35:07;;;;;;;1.10;0.80;;;;;;;23.03;51.55;101005.25;5118234;28;20386;-73
2021/08/05 09:37:38;;;;;;;1.73;1.10;;;;;;;23.00;51.49;101000.03;5099182;28;20030;-73
2021/08/05 09:40:12;;;;;;;2.95;1.00;;;;;;;23.00;51.58;100992.13;5098510;28;20470;-72
2021/08/05 09:42:43;;;;;;;1.40;1.08;;;;;;;23.03;51.60;100990.31;5099836;28;20035;-73
2021/08/05 09:45:09;;;;;;;1.33;0.90;;;;;;;23.03;51.56;100990.31;5083377;28;20093;-73
2021/08/05 09:47:44;;;;;;;1.13;0.95;;;;;;;23.03;51.61;100989.44;5116932;28;20020;-73
2021/08/05 09:50:11;;;;;;;1.20;1.00;;;;;;;23.04;51.35;100988.53;5099905;28;20027;-73
2021/08/05 09:52:37;;;;;;;1.40;1.02;;;;;;;23.02;51.54;100991.22;5099639;28;20081;-73
2021/08/05 09:55:08;;;;;;;1.45;1.00;;;;;;;22.99;51.53;100988.63;5116561;28;20023;-73
2021/08/05 09:57:36;;;;;;;1.20;0.90;;;;;;;23.01;51.48;101001.78;5116463;28;20029;-73
2021/08/05 10:00:14;;;;;;;1.55;1.02;;;;;;;22.97;51.72;100995.72;5098500;28;20069;-72
2021/08/05 10:02:47;;;;;;;1.35;1.08;;;;;;;22.97;51.55;100987.81;5116146;28;20023;-73
2021/08/05 10:05:14;;;;;;;;;;;;;;;22.99;51.51;100982.47;5082281;28;20028;-72
2021/08/05 10:07:44;;;;;;;0.88;0.80;;;;;;;22.95;51.58;100975.56;5098208;28;19908;-73
2021/08/05 10:10:10;;;;;;;1.30;0.90;;;;;;;22.99;51.49;100978.06;5116273;28;20038;-73
2021/08/05 10:12:37;;;;;;;1.40;1.02;;;;;;;22.97;51.64;100974.63;5081495;28;20028;-72
2021/08/05 10:15:13;;;;;;;1.05;0.73;;;;;;;23.01;51.32;100973.63;5118771;28;20062;-72
2021/08/05 10:17:40;;;;;;;1.60;1.10;;;;;;;23.03;51.64;100971.84;5083236;28;20039;-72
2021/08/05 10:20:11;;;;;;;1.63;1.27;;;;;;;23.01;51.29;100964.84;5117683;28;20024;-73
2021/08/05 10:22:37;;;;;;;1.67;1.40;;;;;;;23.00;51.44;100964.00;5117311;28;20478;-72
2021/08/05 10:25:06;;;;;;;1.40;1.00;;;;;;;22.96;51.45;100954.44;5115241;28;20462;-72
2021/08/05 10:27:33;;;;;;;1.92;1.25;;;;;;;22.97;51.54;100957.94;5115818;28;20469;-72
2021/08/05 10:30:00;;;;;;;1.10;0.90;;;;;;;23.00;51.52;100971.03;5081020;28;20050;-73
2021/08/05 10:32:25;;;;;;;1.13;0.93;;;;;;;22.98;51.20;100960.50;5116155;28;20141;-72
2021/08/05 10:34:52;;;;;;;1.77;1.10;;;;;;;22.97;51.61;100955.31;5097633;28;20047;-72
2021/08/05 10:37:18;;;;;;;1.42;1.05;;;;;;;22.97;51.47;100960.56;5115760;28;20414;-72
2021/08/05 10:39:45;;;;;;;1.33;1.00;;;;;;;23.01;51.54;100963.09;5097497;28;20156;-72
2021/08/05 10:42:15;;;;;;;0.85;0.75;;;;;;;22.98;51.51;100963.16;5097365;28;20041;-72
2021/08/05 10:44:41;;;;;;;1.23;1.00;;;;;;;22.96;51.52;100957.06;5115558;28;20440;-73
2021/08/05 10:47:10;;;;;;;1.63;1.42;;;;;;;22.99;51.63;100956.09;5115671;28;20373;-72
2021/08/05 10:49:36;;;;;;;1.17;1.08;;;;;;;22.93;51.67;100940.44;5115393;28;20034;-72
2021/08/05 10:52:02;;;;;;;1.20;0.98;;;;;;;22.99;51.58;100953.47;5080441;28;20106;-72
2021/08/05 10:54:53;;;;;;;1.15;0.90;;;;;;;22.99;51.51;100942.91;5097117;28;20110;-72
2021/08/05 10:57:26;;;;;;;0.97;0.80;;;;;;;23.02;51.55;100938.44;5096888;28;20157;-72
2021/08/05 11:00:14;;;;;;;1.83;1.50;;;;;;;23.01;51.38;100931.44;5097059;28;20224;-72
2021/08/05 11:02:54;;;;;;;1.85;1.08;;;;;;;23.04;51.38;100935.78;5115436;28;20019;-73
2021/08/05 11:05:25;;;;;;;1.23;1.00;;;;;;;23.05;51.21;100932.25;5115064;28;20419;-72
2021/08/05 11:07:55;;;;;;;2.58;1.00;;;;;;;23.01;51.36;100928.81;5115162;28;20023;-72
2021/08/05 11:10:24;;;;;;;1.88;1.20;;;;;;;22.98;51.55;100920.13;5115027;28;20393;-72
2021/08/05 11:13:08;;;;;;;1.23;0.75;;;;;;;23.02;51.42;100921.75;5096780;28;20034;-72
2021/08/05 11:15:33;;;;;;;;;;;;;;;23.03;51.42;100912.94;5096997;28;20027;-72
2021/08/05 11:18:11;;;;;;;1.83;1.50;;;;;;;23.03;51.49;100913.81;5096641;28;20263;-72
2021/08/05 11:20:36;;;;;;;1.48;1.02;;;;;;;23.02;51.41;100909.44;5096741;28;20028;-72
2021/08/05 11:23:02;;;;;;;1.38;1.10;;;;;;;23.00;51.52;100913.88;5114922;28;20458;-72
2021/08/05 11:25:54;;;;;;;1.30;1.10;;;;;;;23.00;51.42;100905.09;5114791;28;20023;-72
2021/08/05 11:28:25;;;;;;;2.58;1.30;;;;;;;22.99;51.45;100908.63;5114797;28;20136;-72